createdAt,value
2022-11-30T00:01:36.540Z,241.77
2022-11-30T00:04:04.763Z,342.63
2022-11-30T00:06:32.822Z,236.00
2022-11-30T00:09:02.677Z,214.43
2022-11-30T00:11:30.765Z,247.43
2022-11-30T00:14:01.661Z,338.17
2022-11-30T00:16:29.703Z,246.53
2022-11-30T00:18:57.784Z,170.47
2022-11-30T00:21:26.226Z,280.97
2022-11-30T00:23:54.276Z,308.47
2022-11-30T00:26:23.780Z,258.20
2022-11-30T00:28:51.865Z,315.17
2022-11-30T00:31:20.942Z,182.77
2022-11-30T00:33:49.659Z,191.63
2022-11-30T00:36:21.936Z,157.77
2022-11-30T00:38:51.986Z,235.50
2022-11-30T00:41:22.208Z,244.47
2022-11-30T00:43:52.606Z,222.43
2022-11-30T00:46:20.729Z,261.80
2022-11-30T00:48:48.889Z,206.90
2022-11-30T00:51:18.416Z,176.53
2022-11-30T00:53:47.641Z,123.73
2022-11-30T00:56:15.791Z,163.03
2022-11-30T00:58:43.829Z,98.83
2022-11-30T01:01:13.527Z,110.07
2022-11-30T01:03:42.516Z,173.70
2022-11-30T01:06:11.407Z,167.10
2022-11-30T01:08:39.612Z,155.80
2022-11-30T01:11:13.429Z,147.17
2022-11-30T01:13:41.827Z,119.37
2022-11-30T01:16:15.643Z,172.60
2022-11-30T01:18:44.860Z,184.27
2022-11-30T01:21:16.299Z,207.57
2022-11-30T01:23:46.418Z,197.23
2022-11-30T01:26:15.290Z,80.90
2022-11-30T01:28:44.940Z,108.40
2022-11-30T01:31:15.947Z,99.43
2022-11-30T01:33:44.461Z,73.07
2022-11-30T01:36:16.535Z,106.90
2022-11-30T01:38:47.407Z,116.63
2022-11-30T01:41:19.239Z,165.53
2022-11-30T01:43:51.181Z,128.60
2022-11-30T01:46:37.347Z,154.57
2022-11-30T01:49:18.050Z,145.57
2022-11-30T01:51:53.658Z,99.80
2022-11-30T01:54:30.506Z,202.87
2022-11-30T01:57:10.999Z,145.00
2022-11-30T01:59:39.355Z,159.77
2022-11-30T02:02:09.072Z,128.67
2022-11-30T02:04:39.563Z,147.20
2022-11-30T02:07:09.509Z,149.90
2022-11-30T02:09:43.804Z,231.30
2022-11-30T02:12:21.606Z,226.67
2022-11-30T02:14:58.011Z,126.30
2022-11-30T02:17:39.678Z,199.50
2022-11-30T02:20:42.390Z,147.43
2022-11-30T02:23:44.587Z,102.63
2022-11-30T02:26:35.527Z,89.47
2022-11-30T02:29:17.606Z,203.87
2022-11-30T02:31:54.498Z,91.43
2022-11-30T02:34:28.818Z,107.67
2022-11-30T02:36:59.194Z,76.53
2022-11-30T02:39:27.190Z,150.87
2022-11-30T02:41:55.192Z,176.13
2022-11-30T02:44:26.785Z,186.30
2022-11-30T02:47:19.448Z,219.90
2022-11-30T02:49:57.088Z,157.97
2022-11-30T02:52:28.973Z,169.53
2022-11-30T02:55:01.951Z,171.00
2022-11-30T02:57:29.952Z,176.07
2022-11-30T03:00:02.804Z,212.97
2022-11-30T03:02:30.811Z,206.67
2022-11-30T03:04:58.806Z,110.93
2022-11-30T03:07:26.854Z,87.20
2022-11-30T03:09:54.990Z,142.87
2022-11-30T03:12:23.445Z,87.57
2022-11-30T03:14:51.476Z,161.17
2022-11-30T03:17:20.776Z,158.73
2022-11-30T03:19:48.799Z,133.63
2022-11-30T03:22:16.805Z,158.00
2022-11-30T03:24:45.042Z,142.60
2022-11-30T03:27:13.908Z,172.07
2022-11-30T03:29:41.876Z,158.90
2022-11-30T03:32:09.944Z,99.57
2022-11-30T03:34:39.240Z,165.90
2022-11-30T03:37:07.282Z,93.50
2022-11-30T03:39:35.268Z,116.53
2022-11-30T03:42:03.549Z,116.63
2022-11-30T03:44:31.575Z,114.63
2022-11-30T03:46:59.584Z,81.93
2022-11-30T03:49:27.590Z,45.83
2022-11-30T03:51:56.900Z,61.33
2022-11-30T03:54:24.892Z,111.07
2022-11-30T03:56:52.928Z,90.60
2022-11-30T03:59:20.892Z,71.10
2022-11-30T04:01:48.929Z,49.50
2022-11-30T04:04:17.076Z,49.00
2022-11-30T04:06:45.031Z,97.17
2022-11-30T04:09:14.614Z,45.57
2022-11-30T04:11:42.575Z,64.47
2022-11-30T04:14:10.585Z,117.87
2022-11-30T04:16:38.631Z,55.10
2022-11-30T04:19:06.680Z,128.40
2022-11-30T04:21:34.653Z,108.47
2022-11-30T04:24:02.876Z,80.73
2022-11-30T04:26:32.280Z,53.73
2022-11-30T04:29:04.120Z,66.73
2022-11-30T04:31:32.729Z,62.30
2022-11-30T04:34:00.784Z,73.00
2022-11-30T04:36:28.743Z,59.23
2022-11-30T04:38:56.732Z,62.73
2022-11-30T04:41:24.688Z,55.17
2022-11-30T04:43:53.989Z,95.03
2022-11-30T04:46:21.995Z,69.23
2022-11-30T04:48:49.967Z,50.57
2022-11-30T04:51:17.925Z,110.00
2022-11-30T04:53:45.891Z,78.77
2022-11-30T04:56:13.871Z,65.80
2022-11-30T04:58:41.839Z,165.00
2022-11-30T05:01:11.158Z,77.67
2022-11-30T05:03:39.145Z,83.43
2022-11-30T05:06:07.620Z,152.87
2022-11-30T05:08:35.582Z,54.83
2022-11-30T05:11:03.783Z,41.63
2022-11-30T05:13:31.817Z,71.93
2022-11-30T05:15:59.833Z,59.73
2022-11-30T05:18:31.572Z,64.53
2022-11-30T05:20:59.576Z,109.23
2022-11-30T05:23:27.610Z,70.87
2022-11-30T05:25:55.755Z,144.17
2022-11-30T05:28:23.742Z,71.67
2022-11-30T05:30:51.686Z,60.93
2022-11-30T05:33:19.642Z,127.93
2022-11-30T05:35:49.950Z,119.43
2022-11-30T05:38:18.259Z,81.93
2022-11-30T05:40:46.386Z,72.33
2022-11-30T05:43:14.470Z,111.90
2022-11-30T05:45:42.454Z,89.43
2022-11-30T05:48:10.419Z,62.87
2022-11-30T05:50:38.496Z,54.90
2022-11-30T05:53:07.876Z,34.67
2022-11-30T05:55:36.669Z,54.70
2022-11-30T05:58:04.682Z,32.90
2022-11-30T06:00:32.688Z,33.10
2022-11-30T06:03:00.902Z,38.20
2022-11-30T06:05:29.892Z,41.10
2022-11-30T06:08:00.744Z,36.47
2022-11-30T06:10:30.182Z,53.10
2022-11-30T06:12:58.138Z,35.03
2022-11-30T06:15:26.099Z,30.97
2022-11-30T06:17:56.455Z,34.13
2022-11-30T06:20:24.435Z,90.83
2022-11-30T06:22:53.391Z,67.17
2022-11-30T06:25:22.309Z,41.40
2022-11-30T06:27:52.027Z,38.83
2022-11-30T06:30:20.566Z,39.27
2022-11-30T06:32:49.908Z,38.50
2022-11-30T06:35:19.443Z,108.57
2022-11-30T06:37:47.638Z,173.73
2022-11-30T06:40:17.114Z,66.77
2022-11-30T06:42:45.292Z,111.73
2022-11-30T06:45:14.666Z,53.87
2022-11-30T06:47:42.626Z,59.30
2022-11-30T06:50:10.994Z,46.87
2022-11-30T06:52:39.051Z,40.40
2022-11-30T06:55:08.474Z,34.97
2022-11-30T06:57:37.411Z,33.93
2022-11-30T07:00:08.326Z,31.40
2022-11-30T07:02:37.913Z,31.43
2022-11-30T07:05:07.001Z,30.83
2022-11-30T07:07:35.367Z,28.70
2022-11-30T07:10:03.373Z,28.40
2022-11-30T07:12:31.558Z,30.33
2022-11-30T07:14:59.532Z,28.50
2022-11-30T07:17:27.913Z,27.70
2022-11-30T07:19:57.300Z,29.30
2022-11-30T07:22:25.290Z,32.87
2022-11-30T07:25:11.017Z,33.97
2022-11-30T07:27:39.042Z,28.63
2022-11-30T07:30:08.921Z,28.47
2022-11-30T07:32:36.878Z,25.70
2022-11-30T07:35:06.906Z,26.17
2022-11-30T07:37:34.934Z,24.70
2022-11-30T07:40:03.372Z,29.70
2022-11-30T07:42:31.435Z,29.27
2022-11-30T07:45:00.012Z,35.00
2022-11-30T07:47:28.156Z,51.13
2022-11-30T07:49:56.235Z,29.37
2022-11-30T07:52:25.711Z,29.97
2022-11-30T07:54:53.878Z,27.63
2022-11-30T07:57:21.933Z,31.70
2022-11-30T07:59:50.159Z,27.10
2022-11-30T08:02:18.435Z,33.13
2022-11-30T08:04:46.986Z,50.07
2022-11-30T08:07:15.675Z,101.77
2022-11-30T08:09:45.936Z,60.23
2022-11-30T08:12:13.993Z,39.97
2022-11-30T08:15:17.403Z,32.90
2022-11-30T08:17:30.361Z,52.13
2022-11-30T08:19:58.377Z,35.00
2022-11-30T08:22:26.379Z,42.47
2022-11-30T08:24:55.745Z,29.30
2022-11-30T08:27:23.957Z,26.53
2022-11-30T08:29:51.916Z,23.93
2022-11-30T08:32:19.999Z,27.80
2022-11-30T08:34:49.629Z,28.77
2022-11-30T08:37:18.817Z,37.03
2022-11-30T08:39:46.822Z,29.40
2022-11-30T08:42:16.330Z,29.30
2022-11-30T08:44:44.646Z,32.20
2022-11-30T08:47:12.704Z,39.83
2022-11-30T08:49:41.809Z,54.20
2022-11-30T08:52:18.436Z,67.17
2022-11-30T08:54:48.932Z,63.20
2022-11-30T08:57:21.150Z,54.07
2022-11-30T08:59:50.678Z,123.10
2022-11-30T09:02:20.597Z,97.40
2022-11-30T09:04:51.127Z,87.80
2022-11-30T09:07:19.505Z,33.97
2022-11-30T09:09:48.033Z,50.03
2022-11-30T09:12:16.045Z,36.53
2022-11-30T09:14:49.547Z,27.93
2022-11-30T09:17:20.511Z,30.40
2022-11-30T09:19:48.521Z,24.80
2022-11-30T09:22:16.532Z,34.53
2022-11-30T09:24:44.973Z,28.87
2022-11-30T09:27:13.432Z,25.17
2022-11-30T09:29:41.449Z,25.83
2022-11-30T09:32:10.799Z,26.00
2022-11-30T09:34:39.021Z,24.63
2022-11-30T09:37:07.019Z,27.73
2022-11-30T09:39:35.140Z,28.87
2022-11-30T09:42:30.204Z,27.90
2022-11-30T09:45:09.572Z,26.37
2022-11-30T09:48:10.174Z,25.63
2022-11-30T09:50:44.564Z,27.77
2022-11-30T09:53:29.144Z,25.20
2022-11-30T09:56:01.371Z,27.77
2022-11-30T09:58:47.492Z,27.87
2022-11-30T10:01:21.122Z,31.07
2022-11-30T10:03:50.971Z,26.97
2022-11-30T10:06:32.666Z,25.23
2022-11-30T10:09:26.759Z,27.10
2022-11-30T10:12:07.192Z,26.23
2022-11-30T10:15:04.171Z,24.03
2022-11-30T10:17:46.483Z,25.43
2022-11-30T10:20:46.972Z,26.73
2022-11-30T10:23:39.589Z,26.67
2022-11-30T10:26:12.804Z,26.73
2022-11-30T10:28:51.303Z,32.33
2022-11-30T10:31:22.186Z,37.57
2022-11-30T10:33:52.801Z,58.93
2022-11-30T10:36:30.471Z,41.30
2022-11-30T10:39:03.805Z,54.23
2022-11-30T10:41:40.366Z,66.07
2022-11-30T10:44:18.275Z,80.47
2022-11-30T10:46:57.328Z,90.03
2022-11-30T10:49:31.951Z,113.30
2022-11-30T10:52:09.304Z,135.67
2022-11-30T10:54:38.101Z,112.63
2022-11-30T10:57:08.851Z,71.70
2022-11-30T10:59:45.762Z,92.30
2022-11-30T11:02:39.053Z,149.63
2022-11-30T11:05:20.714Z,120.17
2022-11-30T11:07:58.826Z,126.47
2022-11-30T11:10:37.257Z,145.67
2022-11-30T11:13:06.065Z,120.90
2022-11-30T11:15:36.248Z,129.53
2022-11-30T11:18:24.412Z,126.83
2022-11-30T11:21:06.783Z,77.53
2022-11-30T11:23:39.428Z,67.30
2022-11-30T11:26:16.653Z,169.10
2022-11-30T11:28:47.746Z,147.33
2022-11-30T11:31:36.049Z,95.27
2022-11-30T11:34:05.635Z,252.33
2022-11-30T11:36:36.735Z,227.50
2022-11-30T11:39:28.099Z,237.80
2022-11-30T11:41:56.200Z,303.97
2022-11-30T11:44:28.281Z,83.53
2022-11-30T11:47:00.088Z,275.10
2022-11-30T11:49:31.203Z,242.50
2022-11-30T11:52:04.766Z,209.47
2022-11-30T11:54:40.707Z,310.67
2022-11-30T11:57:13.122Z,223.63
2022-11-30T11:59:51.270Z,184.27
2022-11-30T12:02:34.636Z,182.33
2022-11-30T12:05:12.722Z,253.60
2022-11-30T12:07:51.304Z,176.63
2022-11-30T12:13:22.425Z,223.37
2022-11-30T12:16:08.476Z,101.17
2022-11-30T12:18:50.734Z,90.27
2022-11-30T12:21:36.004Z,85.13
2022-11-30T12:24:34.547Z,78.37
2022-11-30T12:27:17.473Z,89.43
2022-11-30T12:30:01.349Z,86.30
2022-11-30T12:32:50.534Z,73.50
2022-11-30T12:35:35.156Z,75.67
2022-11-30T12:38:21.491Z,80.33
2022-11-30T12:41:05.618Z,79.73
2022-11-30T12:43:47.691Z,80.47
2022-11-30T12:46:25.020Z,78.43
2022-11-30T12:49:16.115Z,81.80
2022-11-30T12:51:54.963Z,77.20
2022-11-30T12:54:36.645Z,90.53
2022-11-30T12:57:17.040Z,83.73
2022-11-30T12:59:56.900Z,81.90
2022-11-30T13:02:53.532Z,85.27
2022-11-30T13:05:31.463Z,81.20
2022-11-30T13:08:08.893Z,80.57
2022-11-30T13:10:43.906Z,70.13
2022-11-30T13:13:18.382Z,84.37
2022-11-30T13:15:50.143Z,75.30
2022-11-30T13:18:21.765Z,78.17
2022-11-30T13:21:01.796Z,77.60
2022-11-30T13:23:40.176Z,80.07
2022-11-30T13:26:24.861Z,79.33
2022-11-30T13:29:18.851Z,82.37
2022-11-30T13:32:04.323Z,71.23
2022-11-30T13:34:34.451Z,77.67
2022-11-30T13:37:07.535Z,79.83
2022-11-30T13:39:55.191Z,78.13
2022-11-30T13:42:37.882Z,79.10
2022-11-30T13:45:34.398Z,83.50
2022-11-30T13:48:30.697Z,89.27
2022-11-30T13:50:59.121Z,85.50
2022-11-30T13:53:33.863Z,86.47
2022-11-30T13:56:35.719Z,88.97
2022-11-30T13:59:40.934Z,83.27
2022-11-30T14:02:59.051Z,85.20
2022-11-30T14:05:40.947Z,81.37
2022-11-30T14:08:36.881Z,87.63
2022-11-30T14:11:41.539Z,89.50
2022-11-30T14:14:46.929Z,86.60
2022-11-30T14:17:25.610Z,78.97
2022-11-30T14:19:59.126Z,85.83
2022-11-30T14:22:31.857Z,87.40
2022-11-30T14:25:01.512Z,87.87
2022-11-30T14:27:31.342Z,84.73
2022-11-30T14:30:05.108Z,85.13
2022-11-30T14:32:41.700Z,85.27
2022-11-30T14:35:16.622Z,85.27
2022-11-30T14:37:53.650Z,84.83
2022-11-30T14:40:25.495Z,94.00
2022-11-30T14:42:56.575Z,94.00
2022-11-30T14:45:28.392Z,97.17
2022-11-30T14:48:08.355Z,83.00
2022-11-30T14:50:43.193Z,95.13
2022-11-30T14:53:36.807Z,93.03
2022-11-30T14:57:28.910Z,85.40
2022-11-30T15:00:20.824Z,87.97
2022-11-30T15:02:50.636Z,85.03
2022-11-30T15:05:24.090Z,78.90
2022-11-30T15:07:52.336Z,80.20
2022-11-30T15:10:31.934Z,88.23
2022-11-30T15:13:02.963Z,82.60
2022-11-30T15:15:36.127Z,80.07
2022-11-30T15:18:17.978Z,84.63
2022-11-30T15:20:51.050Z,75.43
2022-11-30T15:23:19.264Z,85.03
2022-11-30T15:25:52.795Z,84.10
2022-11-30T15:28:25.474Z,85.43
2022-11-30T15:31:01.378Z,86.77
2022-11-30T15:33:41.474Z,82.17
2022-11-30T15:36:27.919Z,86.20
2022-11-30T15:38:56.479Z,84.27
2022-11-30T15:41:26.473Z,82.50
2022-11-30T15:43:57.842Z,86.47
2022-11-30T15:46:34.212Z,96.13
2022-11-30T15:49:16.422Z,84.23
2022-11-30T15:51:51.023Z,82.27
2022-11-30T15:54:50.212Z,86.47
2022-11-30T15:57:18.465Z,77.87
2022-11-30T16:00:07.567Z,76.90
2022-11-30T16:02:38.541Z,81.77
2022-11-30T16:05:25.143Z,74.67
2022-11-30T16:07:59.870Z,74.57
2022-11-30T16:10:34.206Z,75.53
2022-11-30T16:13:04.088Z,77.03
2022-11-30T16:15:37.544Z,79.53
2022-11-30T16:18:17.774Z,78.10
2022-11-30T16:20:49.148Z,78.80
2022-11-30T16:23:18.458Z,77.13
2022-11-30T16:25:48.383Z,75.20
2022-11-30T16:28:20.115Z,83.87
2022-11-30T16:30:49.483Z,70.90
2022-11-30T16:33:21.330Z,77.27
2022-11-30T16:35:56.266Z,72.47
2022-11-30T16:38:25.556Z,74.30
2022-11-30T16:40:55.553Z,74.87
2022-11-30T16:43:26.069Z,72.10
2022-11-30T16:45:54.147Z,69.17
2022-11-30T16:48:24.610Z,75.23
2022-11-30T16:50:53.789Z,69.83
2022-11-30T16:53:26.090Z,74.77
2022-11-30T16:55:56.520Z,74.57
2022-11-30T16:58:24.537Z,71.30
2022-11-30T17:00:52.618Z,64.37
2022-11-30T17:03:29.035Z,65.90
2022-11-30T17:05:57.050Z,65.47
2022-11-30T17:08:25.211Z,68.13
2022-11-30T17:10:56.488Z,68.07
2022-11-30T17:13:24.506Z,62.63
2022-11-30T17:15:52.521Z,63.37
2022-11-30T17:18:20.751Z,62.03
2022-11-30T17:20:50.322Z,63.33
2022-11-30T17:23:18.444Z,60.63
2022-11-30T17:25:47.210Z,65.57
2022-11-30T17:28:15.255Z,66.73
2022-11-30T17:30:43.531Z,61.07
2022-11-30T17:33:11.717Z,58.93
2022-11-30T17:35:40.330Z,62.90
2022-11-30T17:38:09.695Z,59.90
2022-11-30T17:40:41.897Z,59.90
2022-11-30T17:43:10.158Z,58.63
2022-11-30T17:45:41.233Z,55.83
2022-11-30T17:48:09.428Z,61.33
2022-11-30T17:50:39.822Z,61.53
2022-11-30T17:53:12.979Z,61.07
2022-11-30T17:55:43.481Z,61.10
2022-11-30T17:58:11.864Z,57.17
2022-11-30T18:00:40.135Z,59.73
2022-11-30T18:03:08.508Z,59.90
2022-11-30T18:05:36.560Z,59.60
2022-11-30T18:08:05.126Z,53.33
2022-11-30T18:10:34.699Z,55.67
2022-11-30T18:13:02.761Z,57.10
2022-11-30T18:15:30.829Z,49.53
2022-11-30T18:18:01.134Z,55.10
2022-11-30T18:20:29.774Z,60.97
2022-11-30T18:22:57.818Z,52.90
2022-11-30T18:25:25.828Z,63.00
2022-11-30T18:27:55.571Z,56.30
2022-11-30T18:30:23.596Z,60.67
2022-11-30T18:32:52.318Z,53.40
2022-11-30T18:35:22.881Z,56.87
2022-11-30T18:37:50.924Z,60.43
2022-11-30T18:40:19.084Z,53.93
2022-11-30T18:42:48.734Z,52.87
2022-11-30T18:45:18.256Z,53.47
2022-11-30T18:47:47.228Z,51.60
2022-11-30T18:50:15.342Z,53.27
2022-11-30T18:52:43.444Z,54.20
2022-11-30T18:55:11.953Z,57.40
2022-11-30T18:57:39.950Z,51.30
2022-11-30T19:00:09.976Z,54.60
2022-11-30T19:02:40.032Z,48.87
2022-11-30T19:05:13.475Z,57.10
2022-11-30T19:07:41.812Z,59.80
2022-11-30T19:10:10.954Z,52.63
2022-11-30T19:12:38.992Z,53.63
2022-11-30T19:15:08.738Z,51.47
2022-11-30T19:17:36.750Z,54.70
2022-11-30T19:20:08.158Z,51.30
2022-11-30T19:22:36.169Z,52.63
2022-11-30T19:25:04.766Z,50.50
2022-11-30T19:27:32.742Z,49.60
2022-11-30T19:30:00.896Z,54.90
2022-11-30T19:32:29.121Z,54.40
2022-11-30T19:34:57.197Z,52.03
2022-11-30T19:37:26.893Z,51.40
2022-11-30T19:39:54.941Z,51.63
2022-11-30T19:42:23.161Z,50.43
2022-11-30T19:44:51.234Z,52.60
2022-11-30T19:47:19.370Z,59.13
2022-11-30T19:49:47.438Z,50.17
2022-11-30T19:52:15.552Z,51.87
2022-11-30T19:54:44.955Z,52.47
2022-11-30T19:57:13.249Z,51.43
2022-11-30T19:59:41.375Z,53.93
2022-11-30T20:02:11.905Z,53.57
2022-11-30T20:04:40.289Z,50.60
2022-11-30T20:07:08.318Z,49.00
2022-11-30T20:09:39.180Z,52.50
2022-11-30T20:12:08.764Z,47.80
2022-11-30T20:14:37.016Z,48.47
2022-11-30T20:17:05.233Z,51.27
2022-11-30T20:19:33.497Z,57.63
2022-11-30T20:22:04.680Z,52.00
2022-11-30T20:24:33.242Z,50.40
2022-11-30T20:27:01.300Z,55.33
2022-11-30T20:29:30.754Z,54.83
2022-11-30T20:31:58.983Z,54.13
2022-11-30T20:34:32.737Z,51.07
2022-11-30T20:37:02.327Z,49.53
2022-11-30T20:39:30.332Z,49.33
2022-11-30T20:41:59.312Z,48.63
2022-11-30T20:44:27.356Z,51.03
2022-11-30T20:46:57.360Z,50.70
2022-11-30T20:49:25.395Z,52.63
2022-11-30T20:51:53.603Z,51.63
2022-11-30T20:54:21.857Z,49.10
2022-11-30T20:56:51.302Z,54.40
2022-11-30T20:59:23.451Z,56.37
2022-11-30T21:01:51.648Z,53.37
2022-11-30T21:04:26.689Z,54.57
2022-11-30T21:06:55.224Z,56.53
2022-11-30T21:09:23.262Z,53.47
2022-11-30T21:11:51.304Z,55.37
2022-11-30T21:14:20.519Z,59.83
2022-11-30T21:16:48.867Z,53.30
2022-11-30T21:19:17.153Z,60.57
2022-11-30T21:21:46.519Z,59.13
2022-11-30T21:24:14.577Z,59.63
2022-11-30T21:26:44.047Z,56.10
2022-11-30T21:29:14.298Z,64.50
2022-11-30T21:31:42.627Z,71.07
2022-11-30T21:34:11.141Z,67.30
2022-11-30T21:36:39.407Z,67.70
2022-11-30T21:39:10.446Z,75.80
2022-11-30T21:41:40.847Z,74.13
2022-11-30T21:44:12.664Z,83.10
2022-11-30T21:46:40.829Z,79.63
2022-11-30T21:49:09.720Z,87.03
2022-11-30T21:51:37.796Z,82.28
2022-11-30T21:54:13.027Z,87.93
2022-11-30T21:56:42.533Z,106.13
2022-11-30T21:59:14.406Z,97.22
2022-11-30T22:01:44.829Z,105.03
2022-11-30T22:04:15.873Z,112.45
2022-11-30T22:06:44.458Z,108.55
2022-11-30T22:09:18.503Z,119.38
2022-11-30T22:11:47.110Z,201.50
2022-11-30T22:14:17.797Z,181.68
2022-11-30T22:16:46.402Z,180.50
2022-11-30T22:19:14.759Z,146.70
2022-11-30T22:21:48.307Z,168.15
2022-11-30T22:24:19.705Z,304.90
2022-11-30T22:26:49.320Z,278.88
2022-11-30T22:29:20.309Z,232.25
2022-11-30T22:31:51.316Z,121.53
2022-11-30T22:34:20.643Z,292.60
2022-11-30T22:36:49.010Z,268.00
2022-11-30T22:39:21.221Z,183.23
2022-11-30T22:41:55.203Z,242.00
2022-11-30T22:44:26.370Z,292.65
2022-11-30T22:46:55.542Z,241.30
2022-11-30T22:49:24.270Z,200.73
2022-11-30T22:51:52.425Z,157.95
2022-11-30T22:54:22.004Z,168.68
2022-11-30T22:56:50.049Z,158.63
2022-11-30T22:59:18.098Z,167.43
2022-11-30T23:01:48.699Z,199.18
2022-11-30T23:04:20.550Z,169.63
2022-11-30T23:06:50.540Z,129.93
2022-11-30T23:09:23.058Z,134.27
2022-11-30T23:11:52.106Z,141.88
2022-11-30T23:14:20.459Z,134.75
2022-11-30T23:16:49.892Z,121.80
2022-11-30T23:19:18.149Z,180.38
2022-11-30T23:21:46.239Z,132.77
2022-11-30T23:24:17.521Z,123.35
2022-11-30T23:26:48.031Z,128.45
2022-11-30T23:29:18.751Z,142.95
2022-11-30T23:31:49.619Z,139.57
2022-11-30T23:34:22.266Z,100.68
2022-11-30T23:36:51.341Z,104.13
2022-11-30T23:39:21.252Z,139.70
2022-11-30T23:41:50.964Z,132.27
2022-11-30T23:44:19.261Z,109.68
2022-11-30T23:46:47.426Z,114.28
2022-11-30T23:49:15.972Z,94.53
2022-11-30T23:51:46.713Z,121.03
2022-11-30T23:54:15.713Z,112.53
2022-11-30T23:56:44.157Z,92.18
2022-11-30T23:59:13.800Z,100.43
